sensor_id;sensor_type;location;lat;lon;timestamp;pressure;altitude;pressure_sealevel;temperature;humidity
16525;BME280;8375;33.594;-117.718;2022-07-31T00:00:13;100093.13;;;27.16;47.93
16525;BME280;8375;33.594;-117.718;2022-07-31T00:02:42;100094.75;;;27.17;45.56
16525;BME280;8375;33.594;-117.718;2022-07-31T00:05:11;100088.00;;;27.02;46.67
16525;BME280;8375;33.594;-117.718;2022-07-31T00:07:39;100091.56;;;26.84;47.56
16525;BME280;8375;33.594;-117.718;2022-07-31T00:10:08;100085.81;;;26.99;44.09
16525;BME280;8375;33.594;-117.718;2022-07-31T00:12:37;100086.41;;;26.59;46.23
16525;BME280;8375;33.594;-117.718;2022-07-31T00:15:07;100078.22;;;26.72;47.17
16525;BME280;8375;33.594;-117.718;2022-07-31T00:17:39;100084.06;;;26.50;47.98
16525;BME280;8375;33.594;-117.718;2022-07-31T00:20:10;100085.31;;;26.48;46.31
16525;BME280;8375;33.594;-117.718;2022-07-31T00:22:40;100082.25;;;26.63;45.02
16525;BME280;8375;33.594;-117.718;2022-07-31T00:25:10;100086.03;;;26.86;44.58
16525;BME280;8375;33.594;-117.718;2022-07-31T00:27:39;100100.38;;;26.85;43.81
16525;BME280;8375;33.594;-117.718;2022-07-31T00:30:08;100104.63;;;26.25;45.81
16525;BME280;8375;33.594;-117.718;2022-07-31T00:32:40;100102.66;;;26.01;47.26
16525;BME280;8375;33.594;-117.718;2022-07-31T00:35:09;100109.97;;;26.06;46.15
16525;BME280;8375;33.594;-117.718;2022-07-31T00:37:39;100109.06;;;26.12;48.10
16525;BME280;8375;33.594;-117.718;2022-07-31T00:40:09;100107.75;;;26.03;50.42
16525;BME280;8375;33.594;-117.718;2022-07-31T00:42:38;100107.41;;;26.18;50.44
16525;BME280;8375;33.594;-117.718;2022-07-31T00:45:08;100118.22;;;26.35;49.85
16525;BME280;8375;33.594;-117.718;2022-07-31T00:47:39;100117.00;;;26.49;49.45
16525;BME280;8375;33.594;-117.718;2022-07-31T00:50:09;100114.59;;;26.48;49.74
16525;BME280;8375;33.594;-117.718;2022-07-31T00:52:37;100114.97;;;26.52;50.04
16525;BME280;8375;33.594;-117.718;2022-07-31T00:55:07;100116.03;;;26.62;49.33
16525;BME280;8375;33.594;-117.718;2022-07-31T00:57:36;100120.06;;;26.84;48.99
16525;BME280;8375;33.594;-117.718;2022-07-31T01:00:06;100110.34;;;26.89;48.88
16525;BME280;8375;33.594;-117.718;2022-07-31T01:02:35;100103.03;;;26.85;48.41
16525;BME280;8375;33.594;-117.718;2022-07-31T01:05:06;100114.31;;;26.68;49.40
16525;BME280;8375;33.594;-117.718;2022-07-31T01:07:35;100129.19;;;26.57;50.37
16525;BME280;8375;33.594;-117.718;2022-07-31T01:10:07;100135.78;;;26.55;49.40
16525;BME280;8375;33.594;-117.718;2022-07-31T01:12:41;100124.41;;;26.47;49.36
16525;BME280;8375;33.594;-117.718;2022-07-31T01:15:13;100129.13;;;26.45;49.05
16525;BME280;8375;33.594;-117.718;2022-07-31T01:17:42;100129.44;;;26.37;48.22
16525;BME280;8375;33.594;-117.718;2022-07-31T01:20:15;100124.00;;;26.32;49.74
16525;BME280;8375;33.594;-117.718;2022-07-31T01:23:04;100122.81;;;25.90;49.96
16525;BME280;8375;33.594;-117.718;2022-07-31T01:25:48;100111.72;;;25.56;51.10
16525;BME280;8375;33.594;-117.718;2022-07-31T01:28:38;100122.47;;;25.17;51.62
16525;BME280;8375;33.594;-117.718;2022-07-31T01:31:09;100124.66;;;24.95;52.97
16525;BME280;8375;33.594;-117.718;2022-07-31T01:33:44;100130.38;;;24.60;53.55
16525;BME280;8375;33.594;-117.718;2022-07-31T01:36:20;100130.63;;;24.52;54.57
16525;BME280;8375;33.594;-117.718;2022-07-31T01:38:51;100133.91;;;24.47;54.85
16525;BME280;8375;33.594;-117.718;2022-07-31T01:41:25;100135.97;;;24.45;57.46
16525;BME280;8375;33.594;-117.718;2022-07-31T01:43:58;100134.28;;;24.51;57.19
16525;BME280;8375;33.594;-117.718;2022-07-31T01:46:28;100133.81;;;24.67;55.83
16525;BME280;8375;33.594;-117.718;2022-07-31T01:48:58;100136.38;;;24.87;56.52
16525;BME280;8375;33.594;-117.718;2022-07-31T01:51:29;100140.81;;;24.94;56.93
16525;BME280;8375;33.594;-117.718;2022-07-31T01:53:59;100149.00;;;24.53;58.81
16525;BME280;8375;33.594;-117.718;2022-07-31T01:56:30;100163.91;;;24.48;59.04
16525;BME280;8375;33.594;-117.718;2022-07-31T01:59:02;100155.44;;;24.19;60.36
16525;BME280;8375;33.594;-117.718;2022-07-31T02:01:32;100156.47;;;24.17;60.08
16525;BME280;8375;33.594;-117.718;2022-07-31T02:04:02;100154.38;;;24.33;60.02
16525;BME280;8375;33.594;-117.718;2022-07-31T02:06:31;100164.50;;;24.50;59.83
16525;BME280;8375;33.594;-117.718;2022-07-31T02:09:00;100153.63;;;24.19;61.01
16525;BME280;8375;33.594;-117.718;2022-07-31T02:11:30;100154.47;;;23.93;62.08
16525;BME280;8375;33.594;-117.718;2022-07-31T02:14:02;100154.09;;;23.76;62.82
16525;BME280;8375;33.594;-117.718;2022-07-31T02:16:30;100153.28;;;23.75;63.15
16525;BME280;8375;33.594;-117.718;2022-07-31T02:19:00;100143.91;;;23.79;62.87
16525;BME280;8375;33.594;-117.718;2022-07-31T02:21:29;100139.84;;;23.70;63.20
16525;BME280;8375;33.594;-117.718;2022-07-31T02:23:58;100139.03;;;23.56;63.68
16525;BME280;8375;33.594;-117.718;2022-07-31T02:26:27;100147.19;;;23.41;64.03
16525;BME280;8375;33.594;-117.718;2022-07-31T02:28:57;100143.09;;;23.18;65.15
16525;BME280;8375;33.594;-117.718;2022-07-31T02:31:29;100153.88;;;23.17;65.52
16525;BME280;8375;33.594;-117.718;2022-07-31T02:33:59;100163.44;;;23.18;65.42
16525;BME280;8375;33.594;-117.718;2022-07-31T02:36:28;100173.22;;;23.17;65.76
16525;BME280;8375;33.594;-117.718;2022-07-31T02:39:00;100182.59;;;23.13;65.86
16525;BME280;8375;33.594;-117.718;2022-07-31T02:41:30;100162.41;;;22.98;66.50
16525;BME280;8375;33.594;-117.718;2022-07-31T02:43:58;100169.47;;;22.71;67.46
16525;BME280;8375;33.594;-117.718;2022-07-31T02:46:30;100180.78;;;22.51;68.25
16525;BME280;8375;33.594;-117.718;2022-07-31T02:48:59;100173.91;;;22.64;67.85
16525;BME280;8375;33.594;-117.718;2022-07-31T02:51:29;100174.13;;;22.69;67.84
16525;BME280;8375;33.594;-117.718;2022-07-31T02:53:58;100182.63;;;22.51;68.78
16525;BME280;8375;33.594;-117.718;2022-07-31T02:56:28;100184.41;;;22.44;69.12
16525;BME280;8375;33.594;-117.718;2022-07-31T02:58:57;100172.28;;;22.56;69.21
16525;BME280;8375;33.594;-117.718;2022-07-31T03:01:26;100173.13;;;22.70;68.80
16525;BME280;8375;33.594;-117.718;2022-07-31T03:03:56;100170.28;;;22.71;68.72
16525;BME280;8375;33.594;-117.718;2022-07-31T03:06:25;100174.16;;;22.76;68.58
16525;BME280;8375;33.594;-117.718;2022-07-31T03:08:54;100166.63;;;22.73;68.86
16525;BME280;8375;33.594;-117.718;2022-07-31T03:11:23;100165.56;;;22.60;69.64
16525;BME280;8375;33.594;-117.718;2022-07-31T03:13:53;100165.38;;;22.20;71.54
16525;BME280;8375;33.594;-117.718;2022-07-31T03:16:23;100163.06;;;22.10;71.87
16525;BME280;8375;33.594;-117.718;2022-07-31T03:18:53;100155.78;;;22.12;71.99
16525;BME280;8375;33.594;-117.718;2022-07-31T03:21:24;100166.56;;;22.10;71.92
16525;BME280;8375;33.594;-117.718;2022-07-31T03:23:53;100180.88;;;21.94;72.79
16525;BME280;8375;33.594;-117.718;2022-07-31T03:26:22;100187.56;;;21.90;73.08
16525;BME280;8375;33.594;-117.718;2022-07-31T03:28:51;100185.53;;;21.92;73.18
16525;BME280;8375;33.594;-117.718;2022-07-31T03:31:20;100189.44;;;21.96;72.90
16525;BME280;8375;33.594;-117.718;2022-07-31T03:33:49;100198.56;;;21.94;73.34
16525;BME280;8375;33.594;-117.718;2022-07-31T03:36:18;100204.53;;;21.74;74.34
16525;BME280;8375;33.594;-117.718;2022-07-31T03:38:48;100202.03;;;21.44;76.04
16525;BME280;8375;33.594;-117.718;2022-07-31T03:41:16;100200.31;;;21.36;76.63
16525;BME280;8375;33.594;-117.718;2022-07-31T03:43:46;100201.63;;;21.47;75.96
16525;BME280;8375;33.594;-117.718;2022-07-31T03:46:18;100216.03;;;21.45;76.11
16525;BME280;8375;33.594;-117.718;2022-07-31T03:48:47;100234.59;;;21.51;75.92
16525;BME280;8375;33.594;-117.718;2022-07-31T03:51:17;100244.81;;;21.39;76.62
16525;BME280;8375;33.594;-117.718;2022-07-31T03:53:48;100253.63;;;21.47;76.33
16525;BME280;8375;33.594;-117.718;2022-07-31T03:56:17;100243.88;;;21.47;76.13
16525;BME280;8375;33.594;-117.718;2022-07-31T03:58:46;100247.78;;;21.51;76.20
16525;BME280;8375;33.594;-117.718;2022-07-31T04:01:15;100266.31;;;21.58;75.64
16525;BME280;8375;33.594;-117.718;2022-07-31T04:03:44;100267.53;;;21.34;77.46
16525;BME280;8375;33.594;-117.718;2022-07-31T04:06:12;100278.63;;;21.29;77.38
16525;BME280;8375;33.594;-117.718;2022-07-31T04:08:41;100276.81;;;21.30;77.55
16525;BME280;8375;33.594;-117.718;2022-07-31T04:11:12;100273.53;;;21.28;77.69
16525;BME280;8375;33.594;-117.718;2022-07-31T04:13:41;100274.19;;;21.30;77.73
16525;BME280;8375;33.594;-117.718;2022-07-31T04:16:09;100277.06;;;21.35;77.57
16525;BME280;8375;33.594;-117.718;2022-07-31T04:18:38;100279.13;;;21.39;77.35
16525;BME280;8375;33.594;-117.718;2022-07-31T04:21:07;100284.50;;;21.46;77.09
16525;BME280;8375;33.594;-117.718;2022-07-31T04:23:35;100295.31;;;21.51;76.78
16525;BME280;8375;33.594;-117.718;2022-07-31T04:26:04;100304.88;;;21.52;76.87
16525;BME280;8375;33.594;-117.718;2022-07-31T04:28:34;100313.16;;;21.49;76.77
16525;BME280;8375;33.594;-117.718;2022-07-31T04:31:03;100313.72;;;21.45;77.13
16525;BME280;8375;33.594;-117.718;2022-07-31T04:33:32;100325.50;;;21.42;77.31
16525;BME280;8375;33.594;-117.718;2022-07-31T04:36:01;100332.31;;;21.36;77.54
16525;BME280;8375;33.594;-117.718;2022-07-31T04:38:29;100330.25;;;21.32;77.89
16525;BME280;8375;33.594;-117.718;2022-07-31T04:40:58;100334.44;;;21.26;78.07
16525;BME280;8375;33.594;-117.718;2022-07-31T04:43:26;100335.34;;;21.18;78.60
16525;BME280;8375;33.594;-117.718;2022-07-31T04:45:57;100350.22;;;21.04;79.66
16525;BME280;8375;33.594;-117.718;2022-07-31T04:48:26;100339.09;;;21.09;78.90
16525;BME280;8375;33.594;-117.718;2022-07-31T04:50:55;100342.56;;;21.09;79.43
16525;BME280;8375;33.594;-117.718;2022-07-31T04:53:23;100350.00;;;21.06;79.37
16525;BME280;8375;33.594;-117.718;2022-07-31T04:55:52;100342.09;;;21.06;79.01
16525;BME280;8375;33.594;-117.718;2022-07-31T04:58:34;100348.00;;;21.08;78.99
16525;BME280;8375;33.594;-117.718;2022-07-31T05:01:04;100351.28;;;21.10;79.16
16525;BME280;8375;33.594;-117.718;2022-07-31T05:03:33;100351.28;;;21.10;79.35
16525;BME280;8375;33.594;-117.718;2022-07-31T05:06:09;100348.63;;;21.10;79.27
16525;BME280;8375;33.594;-117.718;2022-07-31T05:08:39;100358.81;;;21.13;79.17
16525;BME280;8375;33.594;-117.718;2022-07-31T05:11:07;100361.66;;;21.12;78.93
16525;BME280;8375;33.594;-117.718;2022-07-31T05:13:52;100358.56;;;21.08;78.86
16525;BME280;8375;33.594;-117.718;2022-07-31T05:16:24;100360.03;;;21.10;79.05
16525;BME280;8375;33.594;-117.718;2022-07-31T05:18:53;100362.66;;;21.10;79.26
16525;BME280;8375;33.594;-117.718;2022-07-31T05:21:22;100362.41;;;21.05;79.06
16525;BME280;8375;33.594;-117.718;2022-07-31T05:23:53;100367.13;;;21.10;79.47
16525;BME280;8375;33.594;-117.718;2022-07-31T05:26:22;100369.75;;;21.10;79.19
16525;BME280;8375;33.594;-117.718;2022-07-31T05:28:52;100375.88;;;21.10;79.35
16525;BME280;8375;33.594;-117.718;2022-07-31T05:31:23;100373.22;;;21.10;78.84
16525;BME280;8375;33.594;-117.718;2022-07-31T05:33:52;100382.13;;;21.09;79.02
16525;BME280;8375;33.594;-117.718;2022-07-31T05:36:21;100384.31;;;21.06;79.30
16525;BME280;8375;33.594;-117.718;2022-07-31T05:38:49;100386.59;;;21.09;79.03
16525;BME280;8375;33.594;-117.718;2022-07-31T05:41:18;100400.16;;;21.06;79.18
16525;BME280;8375;33.594;-117.718;2022-07-31T05:43:47;100402.25;;;21.10;79.53
16525;BME280;8375;33.594;-117.718;2022-07-31T05:46:16;100397.78;;;21.11;79.38
16525;BME280;8375;33.594;-117.718;2022-07-31T05:48:46;100395.78;;;21.13;79.32
16525;BME280;8375;33.594;-117.718;2022-07-31T05:51:15;100399.78;;;21.09;79.58
16525;BME280;8375;33.594;-117.718;2022-07-31T05:53:44;100402.16;;;21.04;80.21
16525;BME280;8375;33.594;-117.718;2022-07-31T05:56:12;100406.41;;;21.05;80.00
16525;BME280;8375;33.594;-117.718;2022-07-31T05:58:41;100408.97;;;21.28;79.35
16525;BME280;8375;33.594;-117.718;2022-07-31T06:01:10;100404.28;;;21.60;77.49
16525;BME280;8375;33.594;-117.718;2022-07-31T06:03:39;100403.59;;;21.88;76.28
16525;BME280;8375;33.594;-117.718;2022-07-31T06:06:09;100400.78;;;22.11;75.33
16525;BME280;8375;33.594;-117.718;2022-07-31T06:08:38;100406.09;;;22.18;75.18
16525;BME280;8375;33.594;-117.718;2022-07-31T06:11:06;100405.72;;;22.21;75.19
16525;BME280;8375;33.594;-117.718;2022-07-31T06:13:35;100393.84;;;22.32;74.25
16525;BME280;8375;33.594;-117.718;2022-07-31T06:16:09;100394.31;;;22.42;73.59
16525;BME280;8375;33.594;-117.718;2022-07-31T06:18:38;100385.28;;;22.52;72.94
16525;BME280;8375;33.594;-117.718;2022-07-31T06:21:08;100387.53;;;22.33;73.27
16525;BME280;8375;33.594;-117.718;2022-07-31T06:23:37;100393.22;;;22.08;74.28
16525;BME280;8375;33.594;-117.718;2022-07-31T06:26:06;100374.34;;;21.90;75.17
16525;BME280;8375;33.594;-117.718;2022-07-31T06:28:34;100381.50;;;21.74;76.11
16525;BME280;8375;33.594;-117.718;2022-07-31T06:31:03;100366.50;;;21.60;76.80
16525;BME280;8375;33.594;-117.718;2022-07-31T06:33:32;100385.91;;;21.52;77.35
16525;BME280;8375;33.594;-117.718;2022-07-31T06:36:00;100382.56;;;21.43;77.91
16525;BME280;8375;33.594;-117.718;2022-07-31T06:38:30;100376.41;;;21.36;78.29
16525;BME280;8375;33.594;-117.718;2022-07-31T06:40:59;100374.28;;;21.16;79.21
16525;BME280;8375;33.594;-117.718;2022-07-31T06:43:27;100364.94;;;21.14;79.74
16525;BME280;8375;33.594;-117.718;2022-07-31T06:45:56;100359.19;;;21.10;79.89
16525;BME280;8375;33.594;-117.718;2022-07-31T06:48:24;100355.75;;;21.09;80.24
16525;BME280;8375;33.594;-117.718;2022-07-31T06:50:53;100358.66;;;21.00;80.98
16525;BME280;8375;33.594;-117.718;2022-07-31T06:53:21;100363.38;;;20.89;81.67
16525;BME280;8375;33.594;-117.718;2022-07-31T06:55:53;100357.13;;;20.90;81.65
16525;BME280;8375;33.594;-117.718;2022-07-31T06:58:22;100357.22;;;20.82;82.22
16525;BME280;8375;33.594;-117.718;2022-07-31T07:00:50;100356.84;;;20.85;81.93
16525;BME280;8375;33.594;-117.718;2022-07-31T07:03:20;100366.66;;;20.91;81.98
16525;BME280;8375;33.594;-117.718;2022-07-31T07:05:48;100358.69;;;20.85;82.43
16525;BME280;8375;33.594;-117.718;2022-07-31T07:08:17;100360.13;;;20.87;82.36
16525;BME280;8375;33.594;-117.718;2022-07-31T07:10:46;100364.38;;;20.88;82.38
16525;BME280;8375;33.594;-117.718;2022-07-31T07:13:16;100368.66;;;20.89;82.42
16525;BME280;8375;33.594;-117.718;2022-07-31T07:15:44;100365.41;;;20.87;82.40
16525;BME280;8375;33.594;-117.718;2022-07-31T07:18:13;100361.94;;;20.87;82.67
16525;BME280;8375;33.594;-117.718;2022-07-31T07:20:42;100355.47;;;20.89;82.56
16525;BME280;8375;33.594;-117.718;2022-07-31T07:23:10;100350.47;;;20.94;82.12
16525;BME280;8375;33.594;-117.718;2022-07-31T07:25:39;100348.94;;;21.00;81.92
16525;BME280;8375;33.594;-117.718;2022-07-31T07:28:08;100343.94;;;21.05;81.46
16525;BME280;8375;33.594;-117.718;2022-07-31T07:30:39;100331.72;;;21.04;81.77
16525;BME280;8375;33.594;-117.718;2022-07-31T07:33:08;100332.16;;;21.08;81.43
16525;BME280;8375;33.594;-117.718;2022-07-31T07:35:36;100336.47;;;20.94;82.21
16525;BME280;8375;33.594;-117.718;2022-07-31T07:38:05;100330.03;;;20.81;82.93
16525;BME280;8375;33.594;-117.718;2022-07-31T07:40:34;100334.94;;;20.85;82.50
16525;BME280;8375;33.594;-117.718;2022-07-31T07:43:02;100339.00;;;20.87;82.65
16525;BME280;8375;33.594;-117.718;2022-07-31T07:45:31;100333.38;;;20.90;82.19
16525;BME280;8375;33.594;-117.718;2022-07-31T07:48:01;100319.53;;;20.88;82.30
16525;BME280;8375;33.594;-117.718;2022-07-31T07:50:31;100324.28;;;20.93;82.29
16525;BME280;8375;33.594;-117.718;2022-07-31T07:53:00;100331.38;;;20.92;82.05
16525;BME280;8375;33.594;-117.718;2022-07-31T07:55:29;100326.94;;;20.93;81.94
16525;BME280;8375;33.594;-117.718;2022-07-31T07:57:57;100318.00;;;20.94;81.58
16525;BME280;8375;33.594;-117.718;2022-07-31T08:00:26;100320.91;;;20.99;81.29
16525;BME280;8375;33.594;-117.718;2022-07-31T08:02:55;100328.38;;;20.95;81.57
16525;BME280;8375;33.594;-117.718;2022-07-31T08:05:25;100323.66;;;20.91;81.93
16525;BME280;8375;33.594;-117.718;2022-07-31T08:07:54;100318.91;;;20.86;82.20
16525;BME280;8375;33.594;-117.718;2022-07-31T08:10:23;100317.09;;;20.87;81.92
16525;BME280;8375;33.594;-117.718;2022-07-31T08:12:51;100310.00;;;20.87;81.96
16525;BME280;8375;33.594;-117.718;2022-07-31T08:15:20;100307.72;;;20.84;82.11
16525;BME280;8375;33.594;-117.718;2022-07-31T08:17:50;100307.28;;;20.80;82.22
16525;BME280;8375;33.594;-117.718;2022-07-31T08:20:18;100310.09;;;20.79;82.37
16525;BME280;8375;33.594;-117.718;2022-07-31T08:22:49;100313.00;;;20.84;82.26
16525;BME280;8375;33.594;-117.718;2022-07-31T08:25:18;100314.84;;;20.84;82.24
16525;BME280;8375;33.594;-117.718;2022-07-31T08:27:48;100313.84;;;20.85;82.05
16525;BME280;8375;33.594;-117.718;2022-07-31T08:30:16;100318.75;;;20.88;82.38
16525;BME280;8375;33.594;-117.718;2022-07-31T08:32:46;100323.00;;;20.89;82.14
16525;BME280;8375;33.594;-117.718;2022-07-31T08:35:14;100321.38;;;20.88;82.11
16525;BME280;8375;33.594;-117.718;2022-07-31T08:37:43;100321.91;;;20.83;82.53
16525;BME280;8375;33.594;-117.718;2022-07-31T08:40:14;100327.09;;;20.76;83.33
16525;BME280;8375;33.594;-117.718;2022-07-31T08:42:45;100322.16;;;20.73;83.00
16525;BME280;8375;33.594;-117.718;2022-07-31T08:45:13;100321.16;;;20.74;83.41
16525;BME280;8375;33.594;-117.718;2022-07-31T08:47:45;100314.44;;;20.72;82.99
16525;BME280;8375;33.594;-117.718;2022-07-31T08:50:15;100320.69;;;20.71;83.76
16525;BME280;8375;33.594;-117.718;2022-07-31T08:52:44;100314.06;;;20.75;83.39
16525;BME280;8375;33.594;-117.718;2022-07-31T08:55:16;100307.34;;;20.72;83.54
16525;BME280;8375;33.594;-117.718;2022-07-31T08:57:46;100313.50;;;20.64;84.12
16525;BME280;8375;33.594;-117.718;2022-07-31T09:00:15;100302.91;;;20.58;84.46
16525;BME280;8375;33.594;-117.718;2022-07-31T09:02:45;100307.97;;;20.59;84.53
16525;BME280;8375;33.594;-117.718;2022-07-31T09:05:13;100311.06;;;20.63;84.27
16525;BME280;8375;33.594;-117.718;2022-07-31T09:07:42;100307.81;;;20.61;84.31
16525;BME280;8375;33.594;-117.718;2022-07-31T09:10:22;100311.34;;;20.68;83.96
16525;BME280;8375;33.594;-117.718;2022-07-31T09:12:51;100309.06;;;20.65;84.00
16525;BME280;8375;33.594;-117.718;2022-07-31T09:15:22;100308.25;;;20.64;83.95
16525;BME280;8375;33.594;-117.718;2022-07-31T09:17:51;100315.00;;;20.67;84.22
16525;BME280;8375;33.594;-117.718;2022-07-31T09:20:21;100317.25;;;20.70;83.91
16525;BME280;8375;33.594;-117.718;2022-07-31T09:23:03;100326.19;;;20.69;83.99
16525;BME280;8375;33.594;-117.718;2022-07-31T09:25:34;100326.34;;;20.67;84.11
16525;BME280;8375;33.594;-117.718;2022-07-31T09:28:03;100338.34;;;20.70;84.37
16525;BME280;8375;33.594;-117.718;2022-07-31T09:30:33;100343.44;;;20.72;84.00
16525;BME280;8375;33.594;-117.718;2022-07-31T09:33:14;100334.72;;;20.71;84.23
16525;BME280;8375;33.594;-117.718;2022-07-31T09:35:47;100334.88;;;20.70;84.23
16525;BME280;8375;33.594;-117.718;2022-07-31T09:38:16;100335.09;;;20.68;84.58
16525;BME280;8375;33.594;-117.718;2022-07-31T09:40:47;100333.97;;;20.62;84.91
16525;BME280;8375;33.594;-117.718;2022-07-31T09:43:15;100332.44;;;20.53;85.44
16525;BME280;8375;33.594;-117.718;2022-07-31T09:45:55;100328.72;;;20.47;86.20
16525;BME280;8375;33.594;-117.718;2022-07-31T09:48:24;100324.44;;;20.46;86.14
16525;BME280;8375;33.594;-117.718;2022-07-31T09:50:53;100331.22;;;20.41;86.79
16525;BME280;8375;33.594;-117.718;2022-07-31T09:53:22;100324.03;;;20.34;87.11
16525;BME280;8375;33.594;-117.718;2022-07-31T09:55:54;100314.50;;;20.33;87.26
16525;BME280;8375;33.594;-117.718;2022-07-31T09:58:24;100312.50;;;20.35;87.40
16525;BME280;8375;33.594;-117.718;2022-07-31T10:00:53;100311.41;;;20.30;87.63
16525;BME280;8375;33.594;-117.718;2022-07-31T10:03:24;100313.34;;;20.36;87.22
16525;BME280;8375;33.594;-117.718;2022-07-31T10:05:53;100304.22;;;20.38;87.19
16525;BME280;8375;33.594;-117.718;2022-07-31T10:08:22;100301.22;;;20.27;87.98
16525;BME280;8375;33.594;-117.718;2022-07-31T10:10:54;100305.56;;;20.19;88.89
16525;BME280;8375;33.594;-117.718;2022-07-31T10:13:22;100307.72;;;20.16;89.10
16525;BME280;8375;33.594;-117.718;2022-07-31T10:15:53;100313.13;;;20.22;88.46
16525;BME280;8375;33.594;-117.718;2022-07-31T10:18:25;100313.56;;;20.26;88.21
16525;BME280;8375;33.594;-117.718;2022-07-31T10:20:56;100314.84;;;20.30;88.37
16525;BME280;8375;33.594;-117.718;2022-07-31T10:23:26;100314.69;;;20.32;88.43
16525;BME280;8375;33.594;-117.718;2022-07-31T10:25:59;100311.94;;;20.25;88.71
16525;BME280;8375;33.594;-117.718;2022-07-31T10:28:28;100312.56;;;20.27;88.30
16525;BME280;8375;33.594;-117.718;2022-07-31T10:30:57;100318.84;;;20.26;88.80
16525;BME280;8375;33.594;-117.718;2022-07-31T10:33:26;100317.31;;;20.32;88.56
16525;BME280;8375;33.594;-117.718;2022-07-31T10:36:01;100327.22;;;20.30;88.28
16525;BME280;8375;33.594;-117.718;2022-07-31T10:38:35;100314.06;;;20.30;88.27
16525;BME280;8375;33.594;-117.718;2022-07-31T10:41:14;100318.97;;;20.33;88.21
16525;BME280;8375;33.594;-117.718;2022-07-31T10:43:47;100316.78;;;20.36;87.94
16525;BME280;8375;33.594;-117.718;2022-07-31T10:46:26;100308.84;;;20.36;87.83
16525;BME280;8375;33.594;-117.718;2022-07-31T10:48:55;100316.03;;;20.43;87.50
16525;BME280;8375;33.594;-117.718;2022-07-31T10:51:24;100315.06;;;20.44;87.07
16525;BME280;8375;33.594;-117.718;2022-07-31T10:53:54;100312.06;;;20.47;88.42
16525;BME280;8375;33.594;-117.718;2022-07-31T10:56:24;100317.59;;;20.52;88.72
16525;BME280;8375;33.594;-117.718;2022-07-31T10:58:54;100319.59;;;20.50;87.42
16525;BME280;8375;33.594;-117.718;2022-07-31T11:01:23;100322.59;;;20.47;87.22
16525;BME280;8375;33.594;-117.718;2022-07-31T11:03:53;100323.06;;;20.50;86.86
16525;BME280;8375;33.594;-117.718;2022-07-31T11:06:36;100319.88;;;20.55;86.86
16525;BME280;8375;33.594;-117.718;2022-07-31T11:09:04;100315.25;;;20.57;86.27
16525;BME280;8375;33.594;-117.718;2022-07-31T11:11:36;100316.88;;;20.58;86.54
16525;BME280;8375;33.594;-117.718;2022-07-31T11:14:04;100319.16;;;20.61;88.39
16525;BME280;8375;33.594;-117.718;2022-07-31T11:16:33;100318.78;;;20.64;87.51
16525;BME280;8375;33.594;-117.718;2022-07-31T11:19:03;100322.44;;;20.63;86.72
16525;BME280;8375;33.594;-117.718;2022-07-31T11:21:33;100319.06;;;20.70;86.09
16525;BME280;8375;33.594;-117.718;2022-07-31T11:24:12;100319.16;;;20.61;86.06
16525;BME280;8375;33.594;-117.718;2022-07-31T11:26:52;100316.88;;;20.58;86.45
16525;BME280;8375;33.594;-117.718;2022-07-31T11:29:28;100324.78;;;20.58;86.26
16525;BME280;8375;33.594;-117.718;2022-07-31T11:32:10;100327.78;;;20.55;86.40
16525;BME280;8375;33.594;-117.718;2022-07-31T11:34:45;100330.69;;;20.60;86.53
16525;BME280;8375;33.594;-117.718;2022-07-31T11:37:16;100332.19;;;20.63;86.25
16525;BME280;8375;33.594;-117.718;2022-07-31T11:39:46;100323.25;;;20.64;86.21
16525;BME280;8375;33.594;-117.718;2022-07-31T11:42:17;100329.34;;;20.64;86.30
16525;BME280;8375;33.594;-117.718;2022-07-31T11:44:45;100328.53;;;20.64;85.87
16525;BME280;8375;33.594;-117.718;2022-07-31T11:47:14;100325.44;;;20.60;86.00
16525;BME280;8375;33.594;-117.718;2022-07-31T11:49:43;100316.34;;;20.63;86.31
16525;BME280;8375;33.594;-117.718;2022-07-31T11:52:12;100308.97;;;20.58;86.12
16525;BME280;8375;33.594;-117.718;2022-07-31T11:54:41;100311.59;;;20.58;86.26
16525;BME280;8375;33.594;-117.718;2022-07-31T11:57:10;100309.16;;;20.57;86.05
16525;BME280;8375;33.594;-117.718;2022-07-31T11:59:41;100310.97;;;20.56;86.49
16525;BME280;8375;33.594;-117.718;2022-07-31T12:02:10;100301.69;;;20.60;86.42
16525;BME280;8375;33.594;-117.718;2022-07-31T12:04:40;100314.88;;;20.60;86.40
16525;BME280;8375;33.594;-117.718;2022-07-31T12:07:09;100314.06;;;20.60;86.10
16525;BME280;8375;33.594;-117.718;2022-07-31T12:09:38;100311.59;;;20.58;86.29
16525;BME280;8375;33.594;-117.718;2022-07-31T12:12:08;100319.72;;;20.57;86.33
16525;BME280;8375;33.594;-117.718;2022-07-31T12:14:40;100323.50;;;20.54;86.33
16525;BME280;8375;33.594;-117.718;2022-07-31T12:17:18;100324.34;;;20.55;86.13
16525;BME280;8375;33.594;-117.718;2022-07-31T12:19:47;100319.06;;;20.55;86.04
16525;BME280;8375;33.594;-117.718;2022-07-31T12:22:18;100317.44;;;20.54;86.43
16525;BME280;8375;33.594;-117.718;2022-07-31T12:24:58;100315.81;;;20.52;86.53
16525;BME280;8375;33.594;-117.718;2022-07-31T12:27:27;100312.53;;;20.50;86.67
16525;BME280;8375;33.594;-117.718;2022-07-31T12:29:57;100315.06;;;20.59;86.43
16525;BME280;8375;33.594;-117.718;2022-07-31T12:32:26;100318.50;;;20.59;86.38
16525;BME280;8375;33.594;-117.718;2022-07-31T12:35:02;100321.88;;;20.53;86.33
16525;BME280;8375;33.594;-117.718;2022-07-31T12:37:42;100331.44;;;20.54;86.41
16525;BME280;8375;33.594;-117.718;2022-07-31T12:40:22;100326.72;;;20.49;86.55
16525;BME280;8375;33.594;-117.718;2022-07-31T12:42:51;100323.88;;;20.51;86.71
16525;BME280;8375;33.594;-117.718;2022-07-31T12:45:36;100322.88;;;20.52;87.00